createdAt,value
2022-08-16T00:00:52.215Z,9.20
2022-08-16T00:02:14.499Z,8.20
2022-08-16T00:03:37.830Z,7.20
2022-08-16T00:05:00.903Z,8.93
2022-08-16T00:06:23.025Z,10.03
2022-08-16T00:07:45.156Z,7.07
2022-08-16T00:09:08.327Z,8.33
2022-08-16T00:10:33.780Z,9.27
2022-08-16T00:11:55.913Z,9.50
2022-08-16T00:13:20.840Z,7.60
2022-08-16T00:14:43.224Z,9.20
2022-08-16T00:16:57.958Z,9.47
2022-08-16T00:17:56.075Z,8.00
2022-08-16T00:19:24.724Z,10.17
2022-08-16T00:20:50.777Z,17.03
2022-08-16T00:22:15.313Z,12.33
2022-08-16T00:23:40.216Z,7.00
2022-08-16T00:25:03.038Z,14.63
2022-08-16T00:26:35.740Z,10.80
2022-08-16T00:28:01.668Z,9.57
2022-08-16T00:29:23.748Z,12.50
2022-08-16T00:30:45.945Z,7.13
2022-08-16T00:32:18.048Z,8.97
2022-08-16T00:33:40.713Z,11.30
2022-08-16T00:35:16.029Z,9.60
2022-08-16T00:36:38.731Z,9.53
2022-08-16T00:38:41.459Z,8.30
2022-08-16T00:39:57.284Z,10.07
2022-08-16T00:41:20.719Z,10.23
2022-08-16T00:42:43.578Z,9.37
2022-08-16T00:44:11.119Z,10.63
2022-08-16T00:46:00.976Z,8.70
2022-08-16T00:47:49.032Z,12.33
2022-08-16T00:49:17.323Z,9.00
2022-08-16T00:50:42.752Z,8.90
2022-08-16T00:52:05.415Z,9.80
2022-08-16T00:53:49.011Z,7.10
2022-08-16T00:55:11.267Z,6.23
2022-08-16T00:56:57.703Z,8.90
2022-08-16T00:58:34.598Z,8.63
2022-08-16T00:59:59.377Z,10.50
2022-08-16T01:01:23.242Z,11.40
2022-08-16T01:02:46.922Z,8.70
2022-08-16T01:04:29.245Z,10.40
2022-08-16T01:05:53.716Z,9.03
2022-08-16T01:07:17.730Z,9.00
2022-08-16T01:08:42.484Z,14.47
2022-08-16T01:10:16.067Z,13.20
2022-08-16T01:11:53.723Z,11.43
2022-08-16T01:13:21.890Z,8.17
2022-08-16T01:14:53.271Z,10.83
2022-08-16T01:16:21.362Z,11.00
2022-08-16T01:17:47.501Z,11.23
2022-08-16T01:19:22.341Z,11.60
2022-08-16T01:20:51.961Z,13.30
2022-08-16T01:22:47.684Z,10.33
2022-08-16T01:24:52.369Z,13.13
2022-08-16T01:26:34.157Z,11.00
2022-08-16T01:27:55.096Z,15.50
2022-08-16T01:29:24.073Z,13.77
2022-08-16T01:31:08.262Z,12.00
2022-08-16T01:32:36.054Z,12.57
2022-08-16T01:33:58.192Z,11.90
2022-08-16T01:35:35.339Z,10.17
2022-08-16T01:37:07.283Z,11.73
2022-08-16T01:38:34.427Z,13.80
2022-08-16T01:39:56.548Z,10.83
2022-08-16T01:41:22.328Z,12.97
2022-08-16T01:42:49.701Z,10.47
2022-08-16T01:44:18.593Z,15.30
2022-08-16T01:45:41.616Z,14.20
2022-08-16T01:47:05.974Z,13.30
2022-08-16T01:48:32.375Z,15.40
2022-08-16T01:50:43.440Z,13.40
2022-08-16T01:51:42.120Z,10.30
2022-08-16T01:53:05.924Z,14.67
2022-08-16T01:54:30.674Z,14.23
2022-08-16T01:55:54.346Z,12.00
2022-08-16T01:57:16.422Z,15.53
2022-08-16T01:58:47.930Z,12.00
2022-08-16T02:00:19.271Z,16.07
2022-08-16T02:01:42.825Z,8.73
2022-08-16T02:03:05.016Z,11.60
2022-08-16T02:04:48.594Z,12.87
2022-08-16T02:06:10.000Z,14.93
2022-08-16T02:07:32.238Z,11.30
2022-08-16T02:08:55.358Z,11.27
2022-08-16T02:10:17.612Z,11.70
2022-08-16T02:11:48.334Z,13.73
2022-08-16T02:13:15.066Z,11.53
2022-08-16T02:14:38.451Z,11.60
2022-08-16T02:16:00.737Z,13.67
2022-08-16T02:17:23.305Z,10.67
2022-08-16T02:18:45.774Z,14.27
2022-08-16T02:20:11.879Z,14.10
2022-08-16T02:21:34.168Z,15.43
2022-08-16T02:22:58.140Z,13.43
2022-08-16T02:24:32.611Z,16.20
2022-08-16T02:25:54.947Z,16.57
2022-08-16T02:27:17.130Z,11.40
2022-08-16T02:28:39.246Z,14.90
2022-08-16T02:30:37.519Z,10.33
2022-08-16T02:32:03.527Z,14.77
2022-08-16T02:33:43.907Z,15.43
2022-08-16T02:35:09.254Z,14.80
2022-08-16T02:36:47.752Z,12.07
2022-08-16T02:38:12.968Z,12.73
2022-08-16T02:39:38.135Z,11.03
2022-08-16T02:41:09.597Z,13.57
2022-08-16T02:42:32.026Z,15.53
2022-08-16T02:43:54.094Z,14.73
2022-08-16T02:45:18.775Z,13.30
2022-08-16T02:46:50.354Z,14.43
2022-08-16T02:48:29.414Z,14.13
2022-08-16T02:49:59.084Z,11.90
2022-08-16T02:51:37.050Z,12.90
2022-08-16T02:52:59.347Z,13.10
2022-08-16T02:54:21.506Z,15.93
2022-08-16T02:55:46.138Z,12.80
2022-08-16T02:57:12.963Z,14.83
2022-08-16T02:58:35.060Z,19.00
2022-08-16T02:59:58.350Z,15.77
2022-08-16T03:01:37.197Z,14.03
2022-08-16T03:02:59.951Z,14.47
2022-08-16T03:04:39.406Z,19.27
2022-08-16T03:06:39.069Z,14.53
2022-08-16T03:07:50.449Z,14.90
2022-08-16T03:09:15.093Z,16.93
2022-08-16T03:10:39.074Z,13.20
2022-08-16T03:12:02.782Z,14.13
2022-08-16T03:13:25.029Z,15.90
2022-08-16T03:14:47.894Z,13.97
2022-08-16T03:16:33.143Z,14.40
2022-08-16T03:17:54.230Z,19.93
2022-08-16T03:19:16.483Z,16.63
2022-08-16T03:20:38.636Z,13.77
2022-08-16T03:22:00.694Z,15.97
2022-08-16T03:23:23.436Z,18.47
2022-08-16T03:24:45.535Z,15.67
2022-08-16T03:26:07.903Z,19.43
2022-08-16T03:27:32.430Z,20.03
2022-08-16T03:28:54.873Z,13.23
2022-08-16T03:30:24.253Z,14.30
2022-08-16T03:31:46.864Z,16.43
2022-08-16T03:33:15.787Z,17.73
2022-08-16T03:34:38.040Z,13.37
2022-08-16T03:36:30.091Z,14.13
2022-08-16T03:37:49.103Z,13.17
2022-08-16T03:39:27.125Z,18.30
2022-08-16T03:40:49.381Z,16.97
2022-08-16T03:42:12.564Z,16.30
2022-08-16T03:43:51.171Z,16.57
2022-08-16T03:45:14.621Z,17.00
2022-08-16T03:46:48.117Z,14.87
2022-08-16T03:48:15.021Z,18.90
2022-08-16T03:49:41.075Z,16.87
2022-08-16T03:51:07.976Z,17.13
2022-08-16T03:52:31.916Z,15.40
2022-08-16T03:54:00.834Z,18.70
2022-08-16T03:55:24.184Z,16.47
2022-08-16T03:56:59.453Z,18.67
2022-08-16T03:58:21.733Z,15.40
2022-08-16T03:59:43.859Z,16.97
2022-08-16T04:01:06.670Z,20.17
2022-08-16T04:02:31.831Z,17.53
2022-08-16T04:03:55.147Z,14.43
2022-08-16T04:05:19.077Z,25.27
2022-08-16T04:06:44.584Z,18.90
2022-08-16T04:08:22.852Z,16.67
2022-08-16T04:09:47.163Z,18.60
2022-08-16T04:11:09.321Z,18.53
2022-08-16T04:12:54.626Z,16.00
2022-08-16T04:14:33.397Z,19.40
2022-08-16T04:15:59.191Z,17.43
2022-08-16T04:17:24.189Z,15.77
2022-08-16T04:18:49.437Z,14.77
2022-08-16T04:20:31.180Z,17.87
2022-08-16T04:21:56.739Z,17.20
2022-08-16T04:23:19.319Z,17.30
2022-08-16T04:24:41.759Z,18.63
2022-08-16T04:26:17.364Z,20.00
2022-08-16T04:27:40.906Z,19.10
2022-08-16T04:29:23.849Z,14.30
2022-08-16T04:30:47.880Z,15.80
2022-08-16T04:32:12.705Z,19.17
2022-08-16T04:33:35.993Z,16.33
2022-08-16T04:35:02.240Z,17.63
2022-08-16T04:36:28.601Z,13.30
2022-08-16T04:37:53.965Z,14.20
2022-08-16T04:39:16.465Z,13.13
2022-08-16T04:40:39.147Z,16.23
2022-08-16T04:42:01.602Z,13.37
2022-08-16T04:43:38.154Z,9.63
2022-08-16T04:45:08.640Z,11.83
2022-08-16T04:47:02.588Z,14.60
2022-08-16T04:48:21.754Z,13.43
2022-08-16T04:49:50.475Z,11.03
2022-08-16T04:51:14.542Z,17.23
2022-08-16T04:52:37.194Z,10.83
2022-08-16T04:53:59.750Z,10.17
2022-08-16T04:55:31.757Z,9.03
2022-08-16T04:57:00.250Z,9.93
2022-08-16T04:58:44.379Z,11.53
2022-08-16T05:00:32.764Z,12.10
2022-08-16T05:01:59.258Z,12.33
2022-08-16T05:03:21.596Z,12.13
2022-08-16T05:04:43.984Z,13.47
2022-08-16T05:06:07.051Z,10.13
2022-08-16T05:07:31.439Z,13.33
2022-08-16T05:08:56.625Z,10.93
2022-08-16T05:10:22.749Z,10.23
2022-08-16T05:11:46.260Z,11.40
2022-08-16T05:13:15.533Z,9.50
2022-08-16T05:14:45.184Z,10.37
2022-08-16T05:16:19.947Z,10.37
2022-08-16T05:17:42.626Z,9.30
2022-08-16T05:19:06.256Z,12.77
2022-08-16T05:20:39.434Z,9.20
2022-08-16T05:22:17.985Z,12.60
2022-08-16T05:23:40.741Z,8.97
2022-08-16T05:25:09.013Z,9.23
2022-08-16T05:26:32.279Z,9.53
2022-08-16T05:27:56.613Z,10.97
2022-08-16T05:29:18.810Z,9.20
2022-08-16T05:30:43.114Z,10.10
2022-08-16T05:32:05.733Z,8.90
2022-08-16T05:33:53.494Z,11.77
2022-08-16T05:35:16.934Z,10.60
2022-08-16T05:36:39.098Z,9.17
2022-08-16T05:38:32.829Z,10.13
2022-08-16T05:39:48.323Z,13.47
2022-08-16T05:41:17.398Z,11.63
2022-08-16T05:42:40.934Z,10.20
2022-08-16T05:44:23.958Z,9.20
2022-08-16T05:45:51.195Z,14.23
2022-08-16T05:47:15.209Z,10.13
2022-08-16T05:48:37.955Z,10.33
2022-08-16T05:50:00.035Z,12.13
2022-08-16T05:51:39.105Z,9.40
2022-08-16T05:53:02.531Z,10.37
2022-08-16T05:54:25.832Z,8.80
2022-08-16T05:55:48.208Z,9.23
2022-08-16T05:57:13.468Z,9.43
2022-08-16T05:58:35.616Z,10.03
2022-08-16T05:59:59.891Z,12.27
2022-08-16T06:01:22.785Z,10.50
2022-08-16T06:02:45.103Z,12.23
2022-08-16T06:04:12.608Z,12.23
2022-08-16T06:05:36.709Z,14.47
2022-08-16T06:07:08.208Z,10.23
2022-08-16T06:08:44.736Z,9.80
2022-08-16T06:10:09.722Z,12.23
2022-08-16T06:11:32.123Z,9.40
2022-08-16T06:12:56.009Z,19.30
2022-08-16T06:14:20.693Z,11.53
2022-08-16T06:15:43.424Z,10.87
2022-08-16T06:17:05.767Z,9.93
2022-08-16T06:18:27.813Z,14.27
2022-08-16T06:19:50.030Z,9.90
2022-08-16T06:21:13.994Z,16.00
2022-08-16T06:22:47.566Z,11.13
2022-08-16T06:24:53.782Z,18.00
2022-08-16T06:26:02.175Z,13.97
2022-08-16T06:27:24.505Z,12.73
2022-08-16T06:28:47.515Z,13.73
2022-08-16T06:30:12.302Z,15.63
2022-08-16T06:31:46.642Z,11.33
2022-08-16T06:33:12.745Z,13.87
2022-08-16T06:34:56.570Z,13.20
2022-08-16T06:36:18.010Z,10.47
2022-08-16T06:37:47.517Z,10.10
2022-08-16T06:39:13.470Z,11.00
2022-08-16T06:40:36.213Z,9.57
2022-08-16T06:41:58.399Z,10.97
2022-08-16T06:43:20.659Z,9.30
2022-08-16T06:44:50.395Z,9.00
2022-08-16T06:46:31.520Z,9.40
2022-08-16T06:47:57.021Z,10.90
2022-08-16T06:49:19.153Z,14.40
2022-08-16T06:50:41.635Z,11.20
2022-08-16T06:52:04.685Z,9.90
2022-08-16T06:53:26.897Z,9.27
2022-08-16T06:54:51.917Z,8.83
2022-08-16T06:56:23.387Z,12.20
2022-08-16T06:57:45.766Z,9.60
2022-08-16T06:59:08.911Z,10.47
2022-08-16T07:00:31.378Z,9.50
2022-08-16T07:01:55.374Z,8.73
2022-08-16T07:03:26.959Z,8.50
2022-08-16T07:04:50.669Z,8.70
2022-08-16T07:06:15.280Z,10.17
2022-08-16T07:07:38.324Z,11.90
2022-08-16T07:09:00.980Z,8.33
2022-08-16T07:10:25.834Z,19.70
2022-08-16T07:11:51.678Z,12.10
2022-08-16T07:13:16.665Z,7.40
2022-08-16T07:14:56.370Z,10.17
2022-08-16T07:16:22.905Z,8.40
2022-08-16T07:17:50.030Z,9.63
2022-08-16T07:19:12.093Z,8.87
2022-08-16T07:20:47.768Z,8.97
2022-08-16T07:22:37.996Z,10.17
2022-08-16T07:23:57.880Z,11.00
2022-08-16T07:25:28.306Z,13.20
2022-08-16T07:26:50.834Z,8.70
2022-08-16T07:28:20.273Z,8.83
2022-08-16T07:29:43.280Z,7.43
2022-08-16T07:31:05.552Z,9.63
2022-08-16T07:32:35.416Z,8.33
2022-08-16T07:33:57.508Z,8.23
2022-08-16T07:35:19.869Z,9.67
2022-08-16T07:36:41.950Z,8.57
2022-08-16T07:38:07.991Z,12.90
2022-08-16T07:39:33.515Z,8.50
2022-08-16T07:41:01.475Z,8.70
2022-08-16T07:42:28.262Z,8.73
2022-08-16T07:43:57.476Z,8.63
2022-08-16T07:45:21.906Z,8.87
2022-08-16T07:46:44.186Z,9.60
2022-08-16T07:48:11.815Z,7.80
2022-08-16T07:49:34.881Z,8.27
2022-08-16T07:50:59.237Z,8.23
2022-08-16T07:52:21.774Z,8.67
2022-08-16T07:53:45.268Z,7.67
2022-08-16T07:55:13.828Z,9.50
2022-08-16T07:56:37.000Z,8.90
2022-08-16T07:58:03.174Z,14.17
2022-08-16T07:59:26.127Z,11.40
2022-08-16T08:01:10.573Z,8.50
2022-08-16T08:02:35.362Z,10.20
2022-08-16T08:03:57.584Z,7.00
2022-08-16T08:05:25.476Z,10.83
2022-08-16T08:06:58.983Z,7.33
2022-08-16T08:08:50.222Z,8.07
2022-08-16T08:10:04.721Z,8.27
2022-08-16T08:11:29.325Z,7.33
2022-08-16T08:12:55.066Z,7.47
2022-08-16T08:14:30.148Z,7.93
2022-08-16T08:15:53.398Z,7.70
2022-08-16T08:17:17.181Z,7.73
2022-08-16T08:18:40.535Z,7.77
2022-08-16T08:20:02.789Z,8.00
2022-08-16T08:21:27.512Z,8.20
2022-08-16T08:23:08.618Z,16.83
2022-08-16T08:24:34.676Z,7.73
2022-08-16T08:25:58.867Z,7.37
2022-08-16T08:27:22.774Z,7.77
2022-08-16T08:28:45.985Z,9.03
2022-08-16T08:30:50.447Z,9.37
2022-08-16T08:31:51.952Z,9.60
2022-08-16T08:33:15.025Z,10.30
2022-08-16T08:34:38.006Z,9.20
2022-08-16T08:36:01.896Z,13.03
2022-08-16T08:37:24.035Z,9.70
2022-08-16T08:38:46.391Z,7.60
2022-08-16T08:40:10.795Z,7.60
2022-08-16T08:41:33.024Z,10.00
2022-08-16T08:43:00.268Z,7.23
2022-08-16T08:44:28.425Z,7.40
2022-08-16T08:45:55.605Z,8.10
2022-08-16T08:47:18.889Z,9.50
2022-08-16T08:48:45.205Z,7.80
2022-08-16T08:50:31.669Z,7.37
2022-08-16T08:51:54.512Z,7.80
2022-08-16T08:53:17.159Z,10.93
2022-08-16T08:54:39.349Z,10.43
2022-08-16T08:56:23.847Z,7.60
2022-08-16T08:57:47.777Z,8.47
2022-08-16T08:59:13.061Z,8.13
2022-08-16T09:00:51.049Z,7.50
2022-08-16T09:02:16.134Z,9.40
2022-08-16T09:03:41.754Z,8.37
2022-08-16T09:05:15.188Z,12.20
2022-08-16T09:06:43.062Z,6.50
2022-08-16T09:08:06.502Z,6.73
2022-08-16T09:09:33.135Z,6.60
2022-08-16T09:11:02.541Z,8.60
2022-08-16T09:12:36.297Z,7.63
2022-08-16T09:14:08.497Z,7.33
2022-08-16T09:15:49.066Z,8.00
2022-08-16T09:17:31.546Z,9.40
2022-08-16T09:18:57.727Z,7.83
2022-08-16T09:20:27.674Z,11.80
2022-08-16T09:21:56.110Z,7.20
2022-08-16T09:23:18.798Z,6.90
2022-08-16T09:24:52.142Z,6.60
2022-08-16T09:26:44.707Z,6.77
2022-08-16T09:28:02.549Z,7.53
2022-08-16T09:29:45.360Z,8.47
2022-08-16T09:31:07.932Z,7.67
2022-08-16T09:32:33.122Z,6.70
2022-08-16T09:33:55.607Z,7.27
2022-08-16T09:35:17.672Z,8.40
2022-08-16T09:36:45.171Z,7.37
2022-08-16T09:38:09.849Z,7.30
2022-08-16T09:39:41.008Z,7.13
2022-08-16T09:41:06.575Z,8.37
2022-08-16T09:42:55.884Z,6.10
2022-08-16T09:45:13.191Z,6.50
2022-08-16T09:46:45.045Z,6.50
2022-08-16T09:47:57.186Z,6.63
2022-08-16T09:49:20.492Z,12.33
2022-08-16T09:50:44.834Z,13.87
2022-08-16T09:52:10.019Z,6.10
2022-08-16T09:53:32.371Z,7.40
2022-08-16T09:54:56.001Z,6.83
2022-08-16T09:56:31.645Z,6.93
2022-08-16T09:57:54.063Z,6.27
2022-08-16T09:59:16.264Z,6.00
2022-08-16T10:00:44.716Z,6.77
2022-08-16T10:02:27.132Z,6.43
2022-08-16T10:04:02.333Z,9.20
2022-08-16T10:05:27.031Z,7.57
2022-08-16T10:06:50.019Z,8.60
2022-08-16T10:08:25.530Z,9.33
2022-08-16T10:09:55.231Z,6.20
2022-08-16T10:11:49.915Z,5.97
2022-08-16T10:13:12.703Z,6.27
2022-08-16T10:14:36.600Z,6.90
2022-08-16T10:15:59.772Z,12.13
2022-08-16T10:17:21.927Z,6.30
2022-08-16T10:19:00.795Z,5.50
2022-08-16T10:20:28.138Z,10.00
2022-08-16T10:21:56.419Z,7.67
2022-08-16T10:23:18.750Z,5.37
2022-08-16T10:24:55.967Z,5.83
2022-08-16T10:27:17.930Z,5.40
2022-08-16T10:28:28.240Z,6.60
2022-08-16T10:30:01.160Z,6.30
2022-08-16T10:31:43.771Z,5.80
2022-08-16T10:33:09.070Z,5.20
2022-08-16T10:34:33.456Z,5.27
2022-08-16T10:35:57.665Z,6.63
2022-08-16T10:37:32.227Z,6.23
2022-08-16T10:38:58.311Z,5.77
2022-08-16T10:40:29.222Z,9.47
2022-08-16T10:41:52.489Z,6.63
2022-08-16T10:43:16.823Z,5.63
2022-08-16T10:44:42.426Z,5.43
2022-08-16T10:46:39.959Z,6.43
2022-08-16T10:47:58.899Z,6.23
2022-08-16T10:49:24.962Z,6.27
2022-08-16T10:50:51.409Z,5.77
2022-08-16T10:52:18.680Z,7.10
2022-08-16T10:53:41.885Z,8.27
2022-08-16T10:56:56.885Z,5.57
2022-08-16T10:58:19.290Z,7.20
2022-08-16T10:59:46.008Z,9.10
2022-08-16T11:01:43.112Z,6.10
2022-08-16T11:03:04.739Z,7.07
2022-08-16T11:05:04.630Z,10.10
2022-08-16T11:06:12.086Z,11.80
2022-08-16T11:07:43.377Z,6.70
2022-08-16T11:09:25.395Z,11.27
2022-08-16T11:11:12.807Z,7.10
2022-08-16T11:12:31.782Z,6.07
2022-08-16T11:13:58.749Z,6.13
2022-08-16T11:15:21.790Z,13.50
2022-08-16T11:17:09.330Z,7.33
2022-08-16T11:18:48.629Z,6.13
2022-08-16T11:22:22.803Z,8.00
2022-08-16T11:23:38.485Z,10.90
2022-08-16T11:27:32.551Z,6.30
2022-08-16T11:30:39.268Z,6.33
2022-08-16T11:32:06.013Z,5.43
2022-08-16T11:35:16.680Z,5.23
2022-08-16T11:36:39.260Z,6.73
2022-08-16T11:38:47.213Z,8.77
2022-08-16T11:40:04.730Z,7.23
2022-08-16T11:41:29.467Z,6.13
2022-08-16T11:42:53.921Z,7.13
2022-08-16T11:44:20.469Z,5.93
2022-08-16T11:46:42.982Z,5.70
2022-08-16T11:47:44.213Z,6.33
2022-08-16T11:49:11.224Z,5.50
2022-08-16T11:50:35.601Z,6.23
2022-08-16T11:51:58.512Z,7.20
2022-08-16T11:53:22.033Z,5.73
2022-08-16T11:54:45.487Z,8.53
2022-08-16T11:56:16.293Z,5.60
2022-08-16T11:57:45.491Z,7.07
2022-08-16T11:59:08.415Z,6.30
2022-08-16T12:00:34.016Z,6.70
2022-08-16T12:02:31.460Z,5.17
2022-08-16T12:03:54.897Z,5.90
2022-08-16T12:05:17.414Z,5.90
2022-08-16T12:06:39.471Z,9.37
2022-08-16T12:08:05.461Z,8.03
2022-08-16T12:09:29.582Z,6.70
2022-08-16T12:10:52.297Z,7.70
2022-08-16T12:12:14.548Z,5.73
2022-08-16T12:13:42.906Z,7.40
2022-08-16T12:15:06.076Z,6.70
2022-08-16T12:16:31.241Z,6.00
2022-08-16T12:17:56.628Z,9.43
2022-08-16T12:19:20.107Z,6.80
2022-08-16T12:20:46.592Z,6.33
2022-08-16T12:22:19.200Z,7.73
2022-08-16T12:23:44.551Z,7.80
2022-08-16T12:25:10.701Z,9.40
2022-08-16T12:26:33.369Z,8.40
2022-08-16T12:28:00.178Z,6.90
2022-08-16T12:29:22.940Z,7.07
2022-08-16T12:30:48.086Z,6.27
2022-08-16T12:32:36.094Z,6.47
2022-08-16T12:33:57.622Z,6.03
2022-08-16T12:35:21.654Z,7.73
2022-08-16T12:36:43.963Z,7.57
2022-08-16T12:38:23.099Z,7.37
2022-08-16T12:39:51.308Z,6.50
2022-08-16T12:41:25.289Z,6.87
2022-08-16T12:42:53.102Z,7.30
2022-08-16T12:44:20.116Z,6.53
2022-08-16T12:45:48.969Z,6.23
2022-08-16T12:47:30.110Z,7.53
2022-08-16T12:48:59.833Z,12.30
2022-08-16T12:50:22.617Z,6.97
2022-08-16T12:51:59.855Z,6.67
2022-08-16T12:53:23.653Z,8.23
2022-08-16T12:54:46.619Z,8.43
2022-08-16T12:56:19.335Z,7.50
2022-08-16T12:57:41.852Z,7.80
2022-08-16T12:59:11.443Z,6.53
2022-08-16T13:00:34.375Z,6.20
2022-08-16T13:01:59.584Z,8.37
2022-08-16T13:03:22.471Z,7.17
2022-08-16T13:04:44.714Z,7.20
2022-08-16T13:06:07.397Z,9.23
2022-08-16T13:07:47.969Z,10.37
2022-08-16T13:09:26.755Z,7.93
2022-08-16T13:10:53.092Z,12.20
2022-08-16T13:12:24.960Z,7.77
2022-08-16T13:13:47.320Z,7.13
2022-08-16T13:15:21.320Z,9.07
2022-08-16T13:16:46.272Z,7.83
2022-08-16T13:18:24.256Z,8.67
2022-08-16T13:20:09.421Z,7.63
2022-08-16T13:21:35.546Z,8.93
2022-08-16T13:23:07.318Z,14.73
2022-08-16T13:24:31.854Z,8.27
2022-08-16T13:25:58.150Z,8.03
2022-08-16T13:27:20.906Z,7.43
2022-08-16T13:29:03.163Z,7.63
2022-08-16T13:30:36.969Z,8.10
2022-08-16T13:32:05.357Z,7.80
2022-08-16T13:33:31.687Z,8.50
2022-08-16T13:34:54.110Z,8.23
2022-08-16T13:36:45.714Z,8.10
2022-08-16T13:38:01.904Z,6.97
2022-08-16T13:39:24.432Z,8.03
2022-08-16T13:40:47.440Z,11.60
2022-08-16T13:42:11.353Z,9.87
2022-08-16T13:43:33.840Z,8.13
2022-08-16T13:44:58.692Z,7.57
2022-08-16T13:46:20.978Z,7.70
2022-08-16T13:47:43.784Z,7.07
2022-08-16T13:49:06.356Z,8.03
2022-08-16T13:50:31.234Z,8.60
2022-08-16T13:52:11.753Z,8.33
2022-08-16T13:53:33.937Z,9.80
2022-08-16T13:54:56.006Z,7.77
2022-08-16T13:56:22.298Z,7.87
2022-08-16T13:58:35.087Z,10.40
2022-08-16T13:59:29.782Z,12.00
2022-08-16T14:00:57.177Z,8.80
2022-08-16T14:02:19.423Z,8.40
2022-08-16T14:03:43.054Z,7.20
2022-08-16T14:05:06.419Z,7.07
2022-08-16T14:06:28.650Z,10.23
2022-08-16T14:07:52.753Z,7.33
2022-08-16T14:09:15.099Z,11.93
2022-08-16T14:10:43.573Z,7.70
2022-08-16T14:12:19.459Z,9.07
2022-08-16T14:13:43.783Z,8.93
2022-08-16T14:15:09.337Z,7.40
2022-08-16T14:16:33.741Z,7.57
2022-08-16T14:18:15.434Z,11.00
2022-08-16T14:19:44.902Z,8.50
2022-08-16T14:21:07.506Z,7.47
2022-08-16T14:22:35.060Z,7.17
2022-08-16T14:24:02.688Z,7.53
2022-08-16T14:25:30.590Z,6.10
2022-08-16T14:26:53.068Z,6.30
2022-08-16T14:28:15.127Z,7.33
2022-08-16T14:29:39.572Z,7.50
2022-08-16T14:31:01.873Z,6.37
2022-08-16T14:32:34.005Z,6.67
2022-08-16T14:33:56.606Z,6.50
2022-08-16T14:35:48.364Z,6.63
2022-08-16T14:37:11.661Z,7.87
2022-08-16T14:38:39.228Z,10.70
2022-08-16T14:40:03.165Z,7.33
2022-08-16T14:41:26.557Z,7.97
2022-08-16T14:42:49.570Z,6.03
2022-08-16T14:44:12.551Z,8.60
2022-08-16T14:45:36.922Z,9.47
2022-08-16T14:46:59.515Z,6.50
2022-08-16T14:48:26.180Z,11.93
2022-08-16T14:49:49.152Z,7.97
2022-08-16T14:51:15.900Z,7.53
2022-08-16T14:52:55.242Z,14.30
2022-08-16T14:54:21.793Z,7.83
2022-08-16T14:55:44.568Z,12.77
2022-08-16T14:57:07.296Z,10.70
2022-08-16T14:58:36.840Z,11.40
2022-08-16T15:00:06.480Z,16.13
2022-08-16T15:01:57.558Z,12.77
2022-08-16T15:03:12.179Z,15.80
2022-08-16T15:04:40.472Z,10.70
2022-08-16T15:06:13.161Z,12.73
2022-08-16T15:07:39.997Z,16.20
2022-08-16T15:09:02.535Z,15.87
2022-08-16T15:10:26.850Z,12.37
2022-08-16T15:11:51.681Z,17.37
2022-08-16T15:13:14.974Z,13.17
2022-08-16T15:14:41.553Z,18.13
2022-08-16T15:16:04.719Z,16.20
2022-08-16T15:17:27.709Z,14.90
2022-08-16T15:18:59.685Z,12.97
2022-08-16T15:20:26.199Z,13.33
2022-08-16T15:21:53.311Z,14.70
2022-08-16T15:23:16.050Z,14.70
2022-08-16T15:24:38.191Z,15.63
2022-08-16T15:26:08.026Z,13.47
2022-08-16T15:27:35.887Z,14.20
2022-08-16T15:28:58.828Z,12.23
2022-08-16T15:30:57.780Z,12.63
2022-08-16T15:32:08.449Z,13.63
2022-08-16T15:33:35.457Z,13.23
2022-08-16T15:35:03.499Z,13.40
2022-08-16T15:36:26.996Z,10.20
2022-08-16T15:37:54.787Z,14.10
2022-08-16T15:39:30.449Z,13.90
2022-08-16T15:40:59.586Z,11.87
2022-08-16T15:42:27.462Z,15.63
2022-08-16T15:43:51.181Z,17.53
2022-08-16T15:45:47.092Z,13.33
2022-08-16T15:47:17.901Z,13.17
2022-08-16T15:48:41.241Z,9.67
2022-08-16T15:50:05.763Z,11.30
2022-08-16T15:51:28.208Z,11.30
2022-08-16T15:52:51.723Z,12.57
2022-08-16T15:54:29.105Z,11.50
2022-08-16T15:55:53.131Z,11.77
2022-08-16T15:57:17.576Z,12.43
2022-08-16T15:58:40.091Z,9.00
2022-08-16T16:00:14.419Z,12.70
2022-08-16T16:01:37.647Z,8.87
2022-08-16T16:03:16.387Z,10.67
2022-08-16T16:04:39.584Z,12.00
2022-08-16T16:06:03.731Z,12.17
2022-08-16T16:07:26.917Z,11.83
2022-08-16T16:08:52.363Z,15.80
2022-08-16T16:10:14.911Z,14.67
2022-08-16T16:11:38.503Z,13.53
2022-08-16T16:13:04.740Z,17.00
2022-08-16T16:14:27.006Z,17.73
2022-08-16T16:15:54.301Z,19.50
2022-08-16T16:17:16.814Z,15.70
2022-08-16T16:18:39.691Z,11.97
2022-08-16T16:20:05.212Z,21.17
2022-08-16T16:21:35.963Z,14.20
2022-08-16T16:23:04.469Z,14.50
2022-08-16T16:24:32.613Z,14.10
2022-08-16T16:25:59.980Z,23.67
2022-08-16T16:27:28.181Z,14.70
2022-08-16T16:29:07.800Z,14.13
2022-08-16T16:30:44.699Z,14.27
2022-08-16T16:32:08.529Z,10.90
2022-08-16T16:33:33.975Z,10.73
2022-08-16T16:34:58.882Z,14.33
2022-08-16T16:36:28.610Z,12.57
2022-08-16T16:37:51.737Z,14.33
2022-08-16T16:39:14.546Z,15.93
2022-08-16T16:40:46.574Z,12.03
2022-08-16T16:42:29.283Z,12.07
2022-08-16T16:43:53.780Z,12.80
2022-08-16T16:45:16.197Z,16.27
2022-08-16T16:46:40.411Z,14.50
2022-08-16T16:48:12.632Z,12.20
2022-08-16T16:49:35.194Z,18.90
2022-08-16T16:51:10.128Z,14.53
2022-08-16T16:52:44.039Z,14.47
2022-08-16T16:54:08.669Z,18.27
2022-08-16T16:55:30.879Z,13.10
2022-08-16T16:56:52.961Z,13.83
2022-08-16T16:58:35.229Z,13.80
2022-08-16T16:59:58.751Z,14.43
2022-08-16T17:01:41.440Z,13.50
2022-08-16T17:03:16.915Z,14.93
2022-08-16T17:04:39.719Z,16.00
2022-08-16T17:06:09.166Z,12.87
2022-08-16T17:07:32.418Z,14.33
2022-08-16T17:08:54.944Z,15.03
2022-08-16T17:10:45.869Z,15.63
2022-08-16T17:11:59.551Z,22.53
2022-08-16T17:13:23.134Z,15.87
2022-08-16T17:14:47.181Z,13.30
2022-08-16T17:16:18.493Z,14.90
2022-08-16T17:18:00.367Z,15.40
2022-08-16T17:19:23.989Z,17.00
2022-08-16T17:20:47.814Z,14.93
2022-08-16T17:22:16.499Z,13.10
2022-08-16T17:23:59.584Z,13.77
2022-08-16T17:25:24.076Z,12.13
2022-08-16T17:26:48.789Z,16.40
2022-08-16T17:28:57.964Z,17.87
2022-08-16T17:29:54.159Z,16.37
2022-08-16T17:31:17.466Z,13.17
2022-08-16T17:32:47.412Z,13.60
2022-08-16T17:34:29.529Z,16.80
2022-08-16T17:35:55.715Z,18.50
2022-08-16T17:37:22.092Z,12.60
2022-08-16T17:38:56.372Z,13.17
2022-08-16T17:40:30.167Z,12.23
2022-08-16T17:42:12.495Z,13.93
2022-08-16T17:43:37.877Z,13.70
2022-08-16T17:45:07.200Z,15.90
2022-08-16T17:46:50.714Z,13.37
2022-08-16T17:48:11.646Z,11.77
2022-08-16T17:49:33.712Z,13.87
2022-08-16T17:50:56.032Z,15.87
2022-08-16T17:52:18.512Z,14.13
2022-08-16T17:53:41.091Z,17.63
2022-08-16T17:55:08.803Z,13.00
2022-08-16T17:56:31.235Z,15.73
2022-08-16T17:57:53.447Z,12.10
2022-08-16T17:59:15.886Z,17.60
2022-08-16T18:00:40.081Z,12.80
2022-08-16T18:02:42.669Z,15.77
2022-08-16T18:04:07.333Z,14.97
2022-08-16T18:05:28.045Z,13.03
2022-08-16T18:06:53.929Z,13.73
2022-08-16T18:08:16.218Z,16.80
2022-08-16T18:09:41.926Z,13.73
2022-08-16T18:11:05.263Z,14.20
2022-08-16T18:12:51.203Z,13.07
2022-08-16T18:14:15.006Z,17.00
2022-08-16T18:15:39.397Z,13.60
2022-08-16T18:17:01.461Z,15.90
2022-08-16T18:18:24.241Z,21.10
2022-08-16T18:19:46.372Z,13.07
2022-08-16T18:21:27.027Z,17.83
2022-08-16T18:22:49.725Z,16.50
2022-08-16T18:24:13.171Z,15.20
2022-08-16T18:25:36.861Z,16.80
2022-08-16T18:27:19.058Z,13.00
2022-08-16T18:28:41.420Z,16.30
2022-08-16T18:30:03.810Z,14.07
2022-08-16T18:31:25.977Z,18.63
2022-08-16T18:32:51.938Z,21.23
2022-08-16T18:34:14.027Z,13.33
2022-08-16T18:35:36.709Z,14.40
2022-08-16T18:36:58.919Z,15.80
2022-08-16T18:38:21.201Z,14.03
2022-08-16T18:39:43.514Z,13.30
2022-08-16T18:41:05.751Z,12.60
2022-08-16T18:42:30.965Z,14.83
2022-08-16T18:43:54.712Z,21.70
2022-08-16T18:45:37.758Z,13.03
2022-08-16T18:47:00.188Z,18.57
2022-08-16T18:48:27.374Z,15.33
2022-08-16T18:49:49.484Z,22.20
2022-08-16T18:51:19.178Z,15.60
2022-08-16T18:52:52.032Z,14.50
2022-08-16T18:54:18.336Z,14.10
2022-08-16T18:55:45.322Z,13.80
2022-08-16T18:57:08.190Z,17.70
2022-08-16T18:58:33.908Z,18.93
2022-08-16T18:59:56.166Z,15.60
2022-08-16T19:01:18.421Z,16.53
2022-08-16T19:02:57.679Z,16.83
2022-08-16T19:04:56.055Z,15.40
2022-08-16T19:06:07.547Z,14.07
2022-08-16T19:07:33.563Z,12.50
2022-08-16T19:08:55.658Z,14.33
2022-08-16T19:10:18.354Z,16.47
2022-08-16T19:11:40.570Z,12.07
2022-08-16T19:13:12.016Z,14.07
2022-08-16T19:14:34.271Z,11.73
2022-08-16T19:15:59.368Z,21.40
2022-08-16T19:17:21.464Z,15.50
2022-08-16T19:18:43.634Z,14.30
2022-08-16T19:20:10.473Z,15.00